createdAt,value
2018-05-17T00:01:59.130Z,44.28
2018-05-17T00:04:25.280Z,44.36
2018-05-17T00:06:51.413Z,44.28
2018-05-17T00:09:17.553Z,44.40
2018-05-17T00:11:43.674Z,44.36
2018-05-17T00:14:09.912Z,44.46
2018-05-17T00:16:36.031Z,44.61
2018-05-17T00:19:02.170Z,44.83
2018-05-17T00:21:28.425Z,44.93
2018-05-17T00:23:54.521Z,44.78
2018-05-17T00:26:20.631Z,44.75
2018-05-17T00:28:46.924Z,44.42
2018-05-17T00:31:13.009Z,44.51
2018-05-17T00:33:39.109Z,44.39
2018-05-17T00:36:05.253Z,44.45
2018-05-17T00:38:31.420Z,44.28
2018-05-17T00:40:57.527Z,44.39
2018-05-17T00:43:23.629Z,44.31
2018-05-17T00:45:49.866Z,44.51
2018-05-17T00:48:15.962Z,44.58
2018-05-17T00:50:42.070Z,44.53
2018-05-17T00:53:20.764Z,44.58
2018-05-17T00:55:47.115Z,44.70
2018-05-17T00:58:13.593Z,44.69
2018-05-17T01:00:39.699Z,44.86
2018-05-17T01:03:05.813Z,44.76
2018-05-17T01:05:31.953Z,44.70
2018-05-17T01:07:58.178Z,44.66
2018-05-17T01:10:24.307Z,44.69
2018-05-17T01:12:50.528Z,44.57
2018-05-17T01:15:16.609Z,44.42
2018-05-17T01:17:49.846Z,44.43
2018-05-17T01:20:16.221Z,44.43
2018-05-17T01:22:42.351Z,44.58
2018-05-17T01:25:08.773Z,44.95
2018-05-17T01:27:34.885Z,44.88
2018-05-17T01:30:01.366Z,45.25
2018-05-17T01:32:27.468Z,44.95
2018-05-17T01:34:53.579Z,44.95
2018-05-17T01:40:21.882Z,44.86
2018-05-17T01:42:48.281Z,44.64
2018-05-17T01:45:14.426Z,44.36
2018-05-17T01:47:40.563Z,44.38
2018-05-17T01:50:06.736Z,44.43
2018-05-17T01:52:32.855Z,44.37
2018-05-17T01:54:58.974Z,44.26
2018-05-17T01:57:25.632Z,44.06
2018-05-17T01:59:51.962Z,44.06
2018-05-17T02:02:18.063Z,44.22
2018-05-17T02:04:44.310Z,44.10
2018-05-17T02:07:10.430Z,44.18
2018-05-17T02:09:36.541Z,44.05
2018-05-17T02:12:02.677Z,44.05
2018-05-17T02:14:28.777Z,43.96
2018-05-17T02:16:54.926Z,44.05
2018-05-17T02:19:21.030Z,43.96
2018-05-17T02:21:47.335Z,43.96
2018-05-17T02:24:13.462Z,43.90
2018-05-17T02:26:39.578Z,43.89
2018-05-17T02:29:05.830Z,44.26
2018-05-17T02:31:31.943Z,44.31
2018-05-17T02:33:58.057Z,44.56
2018-05-17T02:36:24.186Z,44.48
2018-05-17T02:38:50.292Z,44.55
2018-05-17T02:41:16.430Z,44.50
2018-05-17T02:43:42.795Z,44.57
2018-05-17T02:46:09.333Z,44.56
2018-05-17T02:48:35.429Z,44.59
2018-05-17T02:51:01.535Z,44.41
2018-05-17T02:53:27.683Z,44.33
2018-05-17T02:55:53.790Z,44.34
2018-05-17T02:58:19.958Z,44.42
2018-05-17T03:00:46.062Z,44.39
2018-05-17T03:03:12.169Z,44.24
2018-05-17T03:05:38.294Z,44.19
2018-05-17T03:08:04.754Z,43.90
2018-05-17T03:10:30.848Z,43.93
2018-05-17T03:12:56.939Z,43.85
2018-05-17T03:15:23.185Z,43.84
2018-05-17T03:17:49.376Z,43.75
2018-05-17T03:20:15.480Z,43.69
2018-05-17T03:22:41.686Z,43.72
2018-05-17T03:25:07.798Z,43.72
2018-05-17T03:27:33.900Z,43.63
2018-05-17T03:30:00.075Z,43.88
2018-05-17T03:32:26.194Z,43.83
2018-05-17T03:34:52.305Z,43.63
2018-05-17T03:37:18.439Z,43.47
2018-05-17T03:39:44.581Z,43.22
2018-05-17T03:42:10.694Z,43.13
2018-05-17T03:44:37.165Z,43.22
2018-05-17T03:47:03.300Z,43.25
2018-05-17T03:49:29.417Z,43.37
2018-05-17T03:51:55.560Z,43.97
2018-05-17T03:54:21.721Z,43.96
2018-05-17T03:56:47.839Z,44.29
2018-05-17T03:59:13.957Z,44.33
2018-05-17T04:04:55.709Z,44.00
2018-05-17T04:07:21.853Z,43.83
2018-05-17T04:09:47.960Z,43.98
2018-05-17T04:12:14.213Z,44.16
2018-05-17T04:14:40.321Z,44.13
2018-05-17T04:17:06.425Z,44.03
2018-05-17T04:19:32.662Z,43.85
2018-05-17T04:21:58.823Z,43.75
2018-05-17T04:24:25.090Z,43.84
2018-05-17T04:26:51.391Z,43.85
2018-05-17T04:29:17.557Z,43.91
2018-05-17T04:31:43.741Z,43.79
2018-05-17T04:34:09.910Z,43.72
2018-05-17T04:36:36.709Z,43.75
2018-05-17T04:39:02.939Z,43.66
2018-05-17T04:41:29.058Z,43.58
2018-05-17T04:43:55.218Z,43.53
2018-05-17T04:46:21.375Z,43.47
2018-05-17T04:48:47.519Z,43.32
2018-05-17T04:51:13.761Z,43.10
2018-05-17T04:53:39.891Z,43.11
2018-05-17T04:56:06.003Z,42.92
2018-05-17T04:58:32.137Z,42.85
2018-05-17T05:00:58.245Z,42.84
2018-05-17T05:03:24.434Z,42.77
2018-05-17T05:05:50.709Z,43.09
2018-05-17T05:08:16.819Z,44.47
2018-05-17T05:10:43.160Z,44.88
2018-05-17T05:15:42.056Z,44.75
2018-05-17T05:18:08.299Z,44.47
2018-05-17T05:20:34.418Z,44.09
2018-05-17T05:23:00.874Z,43.93
2018-05-17T05:25:27.182Z,43.86
2018-05-17T05:27:53.412Z,43.80
2018-05-17T05:30:19.508Z,43.61
2018-05-17T05:32:46.095Z,43.44
2018-05-17T05:35:12.194Z,43.35
2018-05-17T05:37:38.325Z,43.24
2018-05-17T05:40:04.592Z,43.21
2018-05-17T05:42:30.737Z,43.16
2018-05-17T05:44:56.942Z,43.06
2018-05-17T05:47:23.132Z,43.25
2018-05-17T05:49:49.408Z,43.05
2018-05-17T05:52:15.550Z,42.84
2018-05-17T05:54:41.653Z,43.05
2018-05-17T05:57:08.029Z,42.99
2018-05-17T05:59:34.146Z,43.17
2018-05-17T06:02:00.761Z,43.39
2018-05-17T06:04:26.886Z,43.51
2018-05-17T06:06:53.000Z,43.45
2018-05-17T06:09:19.184Z,43.57
2018-05-17T06:11:45.547Z,43.67
2018-05-17T06:14:11.666Z,43.40
2018-05-17T06:16:37.829Z,43.18
2018-05-17T06:19:03.955Z,43.13
2018-05-17T06:21:30.109Z,43.04
2018-05-17T06:23:56.489Z,42.99
2018-05-17T06:26:22.832Z,42.89
2018-05-17T06:28:48.969Z,42.80
2018-05-17T06:31:15.098Z,42.77
2018-05-17T06:33:41.362Z,42.67
2018-05-17T06:36:07.714Z,42.57
2018-05-17T06:38:33.825Z,42.41
2018-05-17T06:40:59.969Z,42.41
2018-05-17T06:43:26.177Z,42.40
2018-05-17T06:45:52.289Z,42.41
2018-05-17T06:48:18.418Z,42.35
2018-05-17T06:50:44.556Z,42.27
2018-05-17T06:53:10.663Z,42.37
2018-05-17T06:55:37.178Z,42.23
2018-05-17T06:58:03.525Z,42.26
2018-05-17T07:00:29.724Z,42.19
2018-05-17T07:02:55.829Z,42.24
2018-05-17T07:05:21.940Z,42.24
2018-05-17T07:07:48.088Z,42.13
2018-05-17T07:10:14.186Z,42.07
2018-05-17T07:12:40.361Z,41.97
2018-05-17T07:15:06.484Z,41.99
2018-05-17T07:17:32.605Z,42.05
2018-05-17T07:19:58.776Z,42.04
2018-05-17T07:22:24.882Z,41.94
2018-05-17T07:24:51.009Z,41.87
2018-05-17T07:27:17.203Z,41.81
2018-05-17T07:29:43.331Z,41.71
2018-05-17T07:32:09.448Z,41.65
2018-05-17T07:34:35.607Z,41.61
2018-05-17T07:37:01.749Z,41.59
2018-05-17T07:39:28.014Z,41.58
2018-05-17T07:41:54.133Z,41.55
2018-05-17T07:44:20.238Z,41.45
2018-05-17T07:46:46.482Z,41.35
2018-05-17T07:49:12.573Z,41.25
2018-05-17T07:51:38.702Z,41.23
2018-05-17T07:54:05.122Z,41.17
2018-05-17T07:56:31.232Z,41.20
2018-05-17T07:58:57.353Z,41.17
2018-05-17T08:01:23.504Z,41.13
2018-05-17T08:03:49.673Z,40.65
2018-05-17T08:06:15.807Z,41.06
2018-05-17T08:08:42.020Z,42.93
2018-05-17T08:11:08.256Z,44.82
2018-05-17T08:13:34.362Z,45.02
2018-05-17T08:16:00.510Z,45.61
2018-05-17T08:18:26.648Z,45.53
2018-05-17T08:20:52.782Z,45.54
2018-05-17T08:23:19.163Z,46.65
2018-05-17T08:25:45.277Z,46.62
2018-05-17T08:28:11.460Z,47.11
2018-05-17T08:30:37.574Z,47.88
2018-05-17T08:33:03.673Z,48.50
2018-05-17T08:35:29.845Z,49.18
2018-05-17T08:37:56.253Z,49.35
2018-05-17T08:40:22.433Z,49.22
2018-05-17T08:42:48.546Z,48.52
2018-05-17T08:45:14.670Z,48.18
2018-05-17T08:47:41.316Z,48.37
2018-05-17T08:50:07.431Z,49.41
2018-05-17T08:52:33.528Z,50.41
2018-05-17T08:54:59.665Z,50.51
2018-05-17T08:57:25.838Z,50.80
2018-05-17T08:59:52.030Z,50.24
2018-05-17T09:02:18.141Z,49.23
2018-05-17T09:04:44.254Z,48.67
2018-05-17T09:07:10.499Z,49.51
2018-05-17T09:09:36.908Z,50.08
2018-05-17T09:12:03.018Z,50.91
2018-05-17T09:14:29.249Z,50.84
2018-05-17T09:16:55.352Z,51.09
2018-05-17T09:19:21.720Z,51.04
2018-05-17T09:21:48.247Z,51.17
2018-05-17T09:24:14.490Z,50.46
2018-05-17T09:26:40.592Z,50.37
2018-05-17T09:29:06.829Z,50.31
2018-05-17T09:31:32.934Z,49.99
2018-05-17T09:33:59.050Z,50.67
2018-05-17T09:36:25.182Z,51.81
2018-05-17T09:38:51.360Z,52.28
2018-05-17T09:41:17.497Z,52.30
2018-05-17T09:43:43.597Z,51.75
2018-05-17T09:46:09.740Z,51.53
2018-05-17T09:48:35.858Z,51.36
2018-05-17T09:51:01.953Z,50.95
2018-05-17T09:53:28.098Z,51.51
2018-05-17T09:55:54.223Z,51.59
2018-05-17T09:58:20.422Z,51.77
2018-05-17T10:00:47.443Z,51.74
2018-05-17T10:03:13.676Z,51.63
2018-05-17T10:05:39.786Z,51.11
2018-05-17T10:08:06.313Z,51.15
2018-05-17T10:10:32.412Z,51.15
2018-05-17T10:12:58.556Z,51.53
2018-05-17T10:15:24.765Z,51.02
2018-05-17T10:17:51.100Z,50.20
2018-05-17T10:20:17.653Z,49.62
2018-05-17T10:22:43.782Z,49.21
2018-05-17T10:25:09.982Z,48.53
2018-05-17T10:27:36.134Z,48.29
2018-05-17T10:30:02.558Z,48.10
2018-05-17T10:32:28.813Z,48.26
2018-05-17T10:34:54.903Z,48.18
2018-05-17T10:37:21.051Z,48.03
2018-05-17T10:39:47.247Z,47.85
2018-05-17T10:42:13.473Z,47.83
2018-05-17T10:44:39.750Z,47.57
2018-05-17T10:47:05.911Z,47.60
2018-05-17T10:49:32.436Z,47.47
2018-05-17T10:51:58.681Z,47.27
2018-05-17T10:54:26.236Z,47.21
2018-05-17T10:56:52.346Z,47.41
2018-05-17T10:59:18.514Z,47.45
2018-05-17T11:01:44.645Z,47.41
2018-05-17T11:04:10.762Z,47.45
2018-05-17T11:06:36.925Z,47.26
2018-05-17T11:09:03.208Z,46.95
2018-05-17T11:11:29.322Z,46.90
2018-05-17T11:13:55.438Z,46.55
2018-05-17T11:16:21.572Z,46.48
2018-05-17T11:18:47.708Z,46.36
2018-05-17T11:21:13.972Z,46.45
2018-05-17T11:23:40.093Z,46.43
2018-05-17T11:26:06.219Z,46.40
2018-05-17T11:28:32.483Z,46.25
2018-05-17T11:30:58.961Z,46.25
2018-05-17T11:33:25.069Z,46.21
2018-05-17T11:35:51.242Z,46.16
2018-05-17T11:38:17.348Z,46.28
2018-05-17T11:40:43.490Z,46.15
2018-05-17T11:43:09.638Z,46.12
2018-05-17T11:45:36.030Z,46.07
2018-05-17T11:48:02.263Z,46.08
2018-05-17T11:50:28.407Z,46.12
2018-05-17T11:52:54.548Z,46.13
2018-05-17T11:55:20.711Z,46.39
2018-05-17T11:57:46.942Z,46.33
2018-05-17T12:00:13.056Z,46.30
2018-05-17T12:02:39.235Z,46.14
2018-05-17T12:05:05.488Z,46.19
2018-05-17T12:07:31.620Z,46.17
2018-05-17T12:09:57.730Z,46.08
2018-05-17T12:12:24.177Z,46.03
2018-05-17T12:14:50.379Z,46.09
2018-05-17T12:17:16.491Z,46.15
2018-05-17T12:19:42.792Z,45.99
2018-05-17T12:22:08.915Z,45.98
2018-05-17T12:24:35.053Z,45.96
2018-05-17T12:27:01.254Z,45.94
2018-05-17T12:29:27.624Z,45.99
2018-05-17T12:31:53.853Z,45.99
2018-05-17T12:34:19.969Z,45.94
2018-05-17T12:36:46.099Z,45.92
2018-05-17T12:39:12.361Z,45.86
2018-05-17T12:41:38.477Z,45.66
2018-05-17T12:44:04.648Z,45.67
2018-05-17T12:46:30.863Z,45.67
2018-05-17T12:48:57.876Z,45.74
2018-05-17T12:51:24.549Z,45.49
2018-05-17T12:53:51.341Z,45.37
2018-05-17T12:56:17.482Z,45.39
2018-05-17T12:58:43.788Z,45.33
2018-05-17T13:01:09.775Z,45.31
2018-05-17T13:03:35.923Z,45.28
2018-05-17T13:06:02.265Z,45.30
2018-05-17T13:08:29.008Z,45.31
2018-05-17T13:10:55.137Z,45.31
2018-05-17T13:13:21.252Z,45.30
2018-05-17T13:15:47.801Z,45.26
2018-05-17T13:18:13.924Z,45.23
2018-05-17T13:20:40.049Z,45.21
2018-05-17T13:23:06.230Z,45.18
2018-05-17T13:25:32.382Z,45.09
2018-05-17T13:27:58.632Z,45.06
2018-05-17T13:30:24.750Z,44.98
2018-05-17T13:33:14.301Z,44.93
2018-05-17T13:35:40.434Z,44.84
2018-05-17T13:38:06.585Z,44.78
2018-05-17T13:40:32.727Z,44.80
2018-05-17T13:42:58.879Z,44.82
2018-05-17T13:45:25.018Z,44.81
2018-05-17T13:47:51.149Z,44.74
2018-05-17T13:50:17.421Z,44.71
2018-05-17T13:52:43.546Z,44.79
2018-05-17T13:55:09.670Z,44.79
2018-05-17T13:57:35.817Z,44.75
2018-05-17T14:00:02.013Z,44.76
2018-05-17T14:02:28.123Z,44.70
2018-05-17T14:04:54.239Z,44.66
2018-05-17T14:07:20.396Z,44.64
2018-05-17T14:09:46.688Z,44.90
2018-05-17T14:12:12.766Z,44.85
2018-05-17T14:14:38.897Z,44.83
2018-05-17T14:17:04.999Z,44.87
2018-05-17T14:19:31.375Z,44.91
2018-05-17T14:21:57.313Z,44.94
2018-05-17T14:24:23.437Z,44.98
2018-05-17T14:26:49.560Z,45.12
2018-05-17T14:29:16.040Z,45.09
2018-05-17T14:31:42.225Z,45.11
2018-05-17T14:34:08.565Z,45.16
2018-05-17T14:36:34.868Z,45.18
2018-05-17T14:39:01.134Z,45.16
2018-05-17T14:41:27.269Z,45.20
2018-05-17T14:43:53.385Z,45.19
2018-05-17T14:46:19.657Z,45.19
2018-05-17T14:48:45.772Z,45.21
2018-05-17T14:51:11.888Z,45.22
2018-05-17T14:53:38.017Z,45.24
2018-05-17T14:56:04.181Z,45.27
2018-05-17T14:58:30.675Z,45.25
2018-05-17T15:00:57.037Z,45.26
2018-05-17T15:03:23.135Z,45.26
2018-05-17T15:05:49.290Z,45.27
2018-05-17T15:08:15.429Z,45.26
2018-05-17T15:10:41.573Z,45.25
2018-05-17T15:13:07.738Z,45.25
2018-05-17T15:15:33.860Z,45.26
2018-05-17T15:17:59.989Z,45.28
2018-05-17T15:20:26.098Z,45.25
2018-05-17T15:22:52.247Z,45.32
2018-05-17T15:25:18.365Z,45.32
2018-05-17T15:27:44.530Z,45.28
2018-05-17T15:30:10.677Z,45.28
2018-05-17T15:32:36.928Z,45.31
2018-05-17T15:35:03.039Z,45.34
2018-05-17T15:37:29.153Z,45.36
2018-05-17T15:39:55.328Z,45.39
2018-05-17T15:42:21.476Z,45.40
2018-05-17T15:44:47.622Z,45.40
2018-05-17T15:47:14.113Z,45.39
2018-05-17T15:49:40.221Z,45.37
2018-05-17T15:52:06.349Z,45.39
2018-05-17T15:54:32.545Z,45.34
2018-05-17T15:56:58.669Z,45.33
2018-05-17T15:59:24.791Z,45.37
2018-05-17T16:01:50.962Z,45.44
2018-05-17T16:04:17.067Z,45.41
2018-05-17T16:06:43.537Z,45.42
2018-05-17T16:09:09.654Z,45.71
2018-05-17T16:11:35.798Z,45.79
2018-05-17T16:14:01.918Z,45.73
2018-05-17T16:16:28.174Z,45.63
2018-05-17T16:18:54.325Z,45.55
2018-05-17T16:21:20.431Z,45.60
2018-05-17T16:23:46.578Z,45.61
2018-05-17T16:26:12.701Z,45.62
2018-05-17T16:28:38.841Z,45.60
2018-05-17T16:31:04.961Z,45.59
2018-05-17T16:33:31.447Z,45.61
2018-05-17T16:35:57.546Z,45.67
2018-05-17T16:38:23.982Z,45.69
2018-05-17T16:40:50.169Z,45.65
2018-05-17T16:43:16.552Z,45.70
2018-05-17T16:45:42.793Z,45.70
2018-05-17T16:48:08.935Z,45.75
2018-05-17T16:50:35.050Z,45.73
2018-05-17T16:53:01.240Z,45.63
2018-05-17T16:55:27.490Z,45.65
2018-05-17T16:57:53.719Z,45.65
2018-05-17T17:00:19.837Z,45.64
2018-05-17T17:02:46.514Z,45.67
2018-05-17T17:05:12.635Z,45.67
2018-05-17T17:07:38.894Z,45.73
2018-05-17T17:10:05.075Z,46.09
2018-05-17T17:12:31.225Z,46.06
2018-05-17T17:14:57.409Z,46.08
2018-05-17T17:17:23.537Z,46.21
2018-05-17T17:19:50.067Z,46.21
2018-05-17T17:22:16.296Z,46.26
2018-05-17T17:24:43.132Z,46.30
2018-05-17T17:27:09.381Z,46.27
2018-05-17T17:29:35.555Z,46.24
2018-05-17T17:32:01.920Z,46.25
2018-05-17T17:34:28.342Z,46.28
2018-05-17T17:36:54.792Z,46.39
2018-05-17T17:39:21.635Z,46.39
2018-05-17T17:41:47.927Z,46.43
2018-05-17T17:44:15.115Z,46.30
2018-05-17T17:46:41.317Z,46.36
2018-05-17T17:49:07.476Z,46.62
2018-05-17T17:51:33.626Z,46.46
2018-05-17T17:53:59.818Z,46.39
2018-05-17T17:56:25.933Z,46.38
2018-05-17T17:58:52.033Z,46.36
2018-05-17T18:01:18.223Z,46.37
2018-05-17T18:03:44.625Z,46.37
2018-05-17T18:06:10.781Z,46.39
2018-05-17T18:08:36.894Z,46.37
2018-05-17T18:11:03.236Z,46.33
2018-05-17T18:13:29.507Z,46.27
2018-05-17T18:15:55.975Z,46.27
2018-05-17T18:18:22.084Z,46.23
2018-05-17T18:20:48.220Z,46.21
2018-05-17T18:23:14.338Z,46.20
2018-05-17T18:25:40.513Z,46.24
2018-05-17T18:28:06.621Z,46.24
2018-05-17T18:30:32.821Z,46.22
2018-05-17T18:32:59.295Z,46.21
2018-05-17T18:35:25.413Z,46.20
2018-05-17T18:37:51.566Z,46.20
2018-05-17T18:40:17.715Z,46.28
2018-05-17T18:42:44.346Z,46.71
2018-05-17T18:45:10.521Z,47.03
2018-05-17T18:47:36.937Z,47.01
2018-05-17T18:50:03.041Z,47.03
2018-05-17T18:52:29.206Z,47.07
2018-05-17T18:54:55.367Z,47.06
2018-05-17T18:57:21.558Z,47.03
2018-05-17T18:59:47.978Z,47.08
2018-05-17T19:02:14.771Z,47.06
2018-05-17T19:04:41.582Z,47.03
2018-05-17T19:07:08.854Z,47.03
2018-05-17T19:09:35.314Z,46.99
2018-05-17T19:12:01.504Z,46.95
2018-05-17T19:14:27.830Z,47.03
2018-05-17T19:16:53.998Z,47.00
2018-05-17T19:19:20.105Z,47.03
2018-05-17T19:21:46.222Z,47.13
2018-05-17T19:24:12.363Z,47.10
2018-05-17T19:26:38.469Z,47.04
2018-05-17T19:29:04.718Z,47.13
2018-05-17T19:31:30.879Z,47.12
2018-05-17T19:33:57.020Z,47.11
2018-05-17T19:36:23.136Z,47.16
2018-05-17T19:38:49.910Z,47.18
2018-05-17T19:41:16.097Z,47.31
2018-05-17T19:43:42.209Z,47.43
2018-05-17T19:46:08.314Z,47.41
2018-05-17T19:48:34.448Z,47.38
2018-05-17T19:51:00.699Z,47.45
2018-05-17T19:53:26.810Z,47.43
2018-05-17T19:55:52.917Z,47.48
2018-05-17T19:58:19.083Z,47.50
2018-05-17T20:00:45.199Z,47.46
2018-05-17T20:03:11.656Z,47.45
2018-05-17T20:05:37.777Z,47.41
2018-05-17T20:08:03.874Z,47.37
2018-05-17T20:10:30.252Z,47.30
2018-05-17T20:12:56.357Z,47.33
2018-05-17T20:15:22.485Z,47.44
2018-05-17T20:17:48.955Z,47.46
2018-05-17T20:20:15.455Z,47.49
2018-05-17T20:22:41.653Z,47.47
2018-05-17T20:25:07.808Z,47.36
2018-05-17T20:27:34.237Z,47.43
2018-05-17T20:30:00.397Z,47.66
2018-05-17T20:32:26.581Z,47.58
2018-05-17T20:34:52.750Z,47.53
2018-05-17T20:37:18.890Z,47.56
2018-05-17T20:39:45.072Z,47.49
2018-05-17T20:42:11.186Z,47.52
2018-05-17T20:44:37.437Z,47.59
2018-05-17T20:47:03.640Z,47.61
2018-05-17T20:49:29.868Z,47.70
2018-05-17T20:51:56.067Z,47.73
2018-05-17T20:54:22.197Z,48.05
2018-05-17T20:56:48.564Z,47.97
2018-05-17T20:59:14.829Z,47.86
2018-05-17T21:01:40.925Z,47.79
2018-05-17T21:04:10.113Z,47.80
2018-05-17T21:06:36.657Z,47.87
2018-05-17T21:09:02.890Z,47.76
2018-05-17T21:11:29.010Z,47.73
2018-05-17T21:13:55.249Z,47.69
2018-05-17T21:16:21.366Z,47.72
2018-05-17T21:18:47.691Z,47.70
2018-05-17T21:21:14.245Z,47.66
2018-05-17T21:23:40.369Z,47.72
2018-05-17T21:26:06.484Z,47.63
2018-05-17T21:28:32.751Z,47.59
2018-05-17T21:30:58.854Z,47.58
2018-05-17T21:33:25.142Z,47.55
2018-05-17T21:35:51.271Z,47.47
2018-05-17T21:38:17.378Z,47.47
2018-05-17T21:40:43.599Z,47.47
2018-05-17T21:43:09.729Z,47.58
2018-05-17T21:45:36.203Z,47.65
2018-05-17T21:48:02.750Z,47.64
2018-05-17T21:50:28.848Z,47.66
2018-05-17T21:52:54.947Z,47.64
2018-05-17T21:55:21.380Z,47.64
2018-05-17T21:57:47.573Z,47.89
2018-05-17T22:00:13.675Z,47.53
2018-05-17T22:02:39.902Z,47.67
2018-05-17T22:05:06.025Z,47.81
2018-05-17T22:07:32.243Z,47.79
2018-05-17T22:09:58.321Z,47.83
2018-05-17T22:12:24.425Z,47.77
2018-05-17T22:14:50.581Z,47.86
2018-05-17T22:17:16.702Z,47.90
2018-05-17T22:19:43.269Z,47.81
2018-05-17T22:22:09.401Z,47.83
2018-05-17T22:24:35.514Z,47.86
2018-05-17T22:27:02.081Z,47.89
2018-05-17T22:29:28.185Z,47.90
2018-05-17T22:31:54.311Z,47.83
2018-05-17T22:34:20.553Z,47.88
2018-05-17T22:36:46.662Z,47.87
2018-05-17T22:39:12.780Z,47.79
2018-05-17T22:41:38.951Z,47.87
2018-05-17T22:44:05.065Z,47.87
2018-05-17T22:46:31.310Z,47.85
2018-05-17T22:48:57.431Z,47.86
2018-05-17T22:51:23.561Z,47.84
2018-05-17T22:53:49.820Z,47.86
2018-05-17T22:56:28.259Z,47.84
2018-05-17T22:58:54.462Z,47.85
2018-05-17T23:01:20.845Z,47.84
2018-05-17T23:03:47.586Z,47.82
2018-05-17T23:06:13.685Z,47.87
2018-05-17T23:08:39.900Z,47.97
2018-05-17T23:11:06.164Z,48.08
2018-05-17T23:13:32.296Z,48.14
2018-05-17T23:15:58.401Z,48.25
2018-05-17T23:18:24.539Z,48.42
2018-05-17T23:20:50.653Z,48.49
2018-05-17T23:23:16.897Z,48.44
2018-05-17T23:25:43.027Z,48.49
2018-05-17T23:28:09.145Z,48.57
2018-05-17T23:30:35.421Z,48.60
2018-05-17T23:33:01.766Z,49.03
2018-05-17T23:35:27.902Z,49.02
2018-05-17T23:37:54.077Z,48.94
2018-05-17T23:40:32.435Z,49.04
2018-05-17T23:42:58.605Z,49.01
2018-05-17T23:45:24.724Z,48.88
2018-05-17T23:47:51.160Z,48.79
2018-05-17T23:50:17.792Z,48.78
2018-05-17T23:52:43.909Z,48.58
2018-05-17T23:55:10.020Z,48.57
2018-05-17T23:57:36.180Z,48.71
